Time;durP1;ratioP1;P1;durP2;ratioP2;P2;SDS_P1;SDS_P2;PMS_P1;PMS_P2;Temp;Humidity;BMP_temperature;BMP_pressure;BME280_temperature;BME280_humidity;BME280_pressure;Samples;Min_cycle;Max_cycle;Signal;HPM_P1;HPM_P2
2021/12/11 00:02:29;;;;;;;65.03;33.27;;;8.90;99.90;;;;;;10196330;29;20768;-85
2021/12/11 00:07:31;;;;;;;64.33;33.47;;;9.10;99.90;;;;;;10236764;29;20747;-85
2021/12/11 00:12:44;;;;;;;69.97;36.03;;;8.90;99.90;;;;;;10227803;29;20230;-85
2021/12/11 00:17:47;;;;;;;78.57;39.73;;;8.90;99.90;;;;;;10228102;29;20774;-85
2021/12/11 00:22:52;;;;;;;63.50;33.60;;;8.90;99.90;;;;;;10214673;29;20230;-85
2021/12/11 00:28:07;;;;;;;65.53;35.10;;;8.90;99.90;;;;;;10227558;29;20315;-85
2021/12/11 00:33:30;;;;;;;73.43;34.07;;;8.60;99.90;;;;;;10226226;29;20254;-85
2021/12/11 00:38:34;;;;;;;62.50;32.57;;;8.90;99.90;;;;;;10240580;29;20237;-85
2021/12/11 00:43:40;;;;;;;58.10;29.93;;;9.30;99.90;;;;;;10205018;29;20270;-85
2021/12/11 00:48:43;;;;;;;62.47;32.43;;;9.90;99.90;;;;;;10224575;29;20315;-85
2021/12/11 00:53:58;;;;;;;73.07;36.57;;;10.10;99.90;;;;;;10243165;29;20242;-85
2021/12/11 00:59:04;;;;;;;57.90;32.53;;;9.90;99.90;;;;;;10226230;29;20313;-85
2021/12/11 01:04:20;;;;;;;62.87;31.87;;;9.70;99.90;;;;;;10244393;28;20713;-86
2021/12/11 01:09:48;;;;;;;69.00;36.17;;;9.50;99.90;;;;;;10243642;29;20324;-85
2021/12/11 01:14:57;;;;;;;66.43;34.90;;;9.60;99.90;;;;;;10196874;29;20262;-86
2021/12/11 01:20:04;;;;;;;75.77;38.43;;;9.70;99.90;;;;;;10186973;29;20337;-85
2021/12/11 01:25:18;;;;;;;59.57;32.57;;;9.70;99.90;;;;;;10204196;29;20772;-85
2021/12/11 01:30:28;;;;;;;64.20;33.87;;;9.60;99.90;;;;;;10221676;29;20270;-85
2021/12/11 01:35:31;;;;;;;61.87;33.30;;;9.20;99.70;;;;;;10217930;29;20262;-85
2021/12/11 01:40:35;;;;;;;61.73;32.17;;;9.30;99.90;;;;;;10222919;29;20238;-85
2021/12/11 01:45:43;;;;;;;66.93;34.03;;;9.40;99.90;;;;;;10243102;29;20294;-85
2021/12/11 01:50:50;;;;;;;61.63;32.10;;;9.20;99.90;;;;;;10241302;29;20670;-85
2021/12/11 01:55:57;;;;;;;62.70;31.20;;;9.10;99.90;;;;;;10215257;29;20238;-85
2021/12/11 02:01:12;;;;;;;58.03;29.90;;;9.70;99.90;;;;;;10224842;29;20741;-85
2021/12/11 02:06:14;;;;;;;62.13;32.20;;;10.00;98.00;;;;;;10242559;29;20268;-85
2021/12/11 02:11:21;;;;;;;69.57;34.87;;;9.80;98.10;;;;;;10211321;29;20977;-86
2021/12/11 02:16:38;;;;;;;53.23;29.83;;;9.30;97.40;;;;;;10227410;28;20713;-85
2021/12/11 02:22:00;;;;;;;63.50;33.20;;;9.50;98.70;;;;;;10232019;29;20753;-85
2021/12/11 02:27:21;;;;;;;61.93;32.70;;;9.60;98.10;;;;;;10249795;29;20842;-85
2021/12/11 02:32:39;;;;;;;56.27;30.27;;;9.50;98.00;;;;;;10216646;29;20255;-85
2021/12/11 02:37:48;;;;;;;57.67;29.57;;;9.90;97.40;;;;;;10224199;29;20810;-85
2021/12/11 02:42:56;;;;;;;60.27;31.10;;;9.90;96.00;;;;;;10224170;29;20270;-85
2021/12/11 02:48:07;;;;;;;56.93;30.83;;;9.90;95.50;;;;;;10227139;28;20271;-85
2021/12/11 02:53:23;;;;;;;62.30;31.23;;;9.40;96.90;;;;;;10265586;28;20242;-85
2021/12/11 02:58:32;;;;;;;60.90;31.87;;;9.40;96.10;;;;;;10262763;28;20243;-85
2021/12/11 03:03:44;;;;;;;53.13;30.50;;;9.40;96.70;;;;;;10251318;28;20258;-84
2021/12/11 03:08:54;;;;;;;58.93;31.13;;;9.40;96.20;;;;;;10192485;29;20317;-85
2021/12/11 03:13:59;;;;;;;55.00;29.87;;;9.60;95.40;;;;;;10226667;29;20262;-85
2021/12/11 03:19:04;;;;;;;52.67;29.17;;;9.50;95.70;;;;;;10239621;29;20270;-85
2021/12/11 03:24:08;;;;;;;54.27;30.97;;;9.60;95.50;;;;;;10191461;29;20262;-85
2021/12/11 03:29:11;;;;;;;55.70;29.83;;;9.30;94.90;;;;;;10207299;29;20306;-85
2021/12/11 03:34:19;;;;;;;55.83;29.77;;;9.40;95.50;;;;;;10227313;29;20769;-85
2021/12/11 03:39:25;;;;;;;55.67;29.87;;;9.50;95.10;;;;;;10247275;29;20336;-85
2021/12/11 03:44:32;;;;;;;55.00;31.07;;;9.10;95.30;;;;;;10212260;29;20278;-85
2021/12/11 03:49:35;;;;;;;50.87;29.70;;;9.10;95.70;;;;;;10190507;29;20266;-85
2021/12/11 03:54:40;;;;;;;47.70;26.73;;;9.50;95.90;;;;;;10213707;29;20301;-85
2021/12/11 03:59:47;;;;;;;54.53;30.70;;;10.00;94.50;;;;;;10227738;29;20612;-85
2021/12/11 04:04:56;;;;;;;53.80;29.37;;;10.00;93.40;;;;;;10241038;29;20319;-85
2021/12/11 04:09:59;;;;;;;57.23;31.27;;;9.90;93.10;;;;;;10225700;28;20920;-85
2021/12/11 04:15:03;;;;;;;53.70;28.60;;;9.80;93.30;;;;;;10248519;28;20227;-85
2021/12/11 04:20:14;;;;;;;52.33;27.10;;;9.60;93.50;;;;;;10248150;28;20233;-85
2021/12/11 04:25:20;;;;;;;52.50;29.90;;;9.10;94.50;;;;;;10264430;28;20278;-85
2021/12/11 04:30:24;;;;;;;49.67;26.73;;;9.40;93.70;;;;;;10236027;28;20312;-85
2021/12/11 04:35:29;;;;;;;56.40;29.37;;;9.60;93.60;;;;;;10264793;28;20770;-83
2021/12/11 04:40:36;;;;;;;57.63;28.70;;;9.20;93.30;;;;;;10264324;28;20243;-83
2021/12/11 04:45:50;;;;;;;50.97;27.70;;;8.80;94.20;;;;;;10205390;29;20266;-83
2021/12/11 04:51:06;;;;;;;58.33;31.60;;;8.70;94.50;;;;;;10200209;29;20313;-83
2021/12/11 05:01:47;;;;;;;52.87;26.67;;;8.80;95.20;;;;;;10244702;29;20238;-83
2021/12/11 05:07:04;;;;;;;50.53;27.97;;;9.10;94.70;;;;;;10227671;29;20266;-82
2021/12/11 05:17:17;;;;;;;48.93;27.90;;;8.70;93.60;;;;;;10226173;29;20257;-83
2021/12/11 05:22:20;;;;;;;52.00;26.63;;;8.80;94.70;;;;;;10225385;29;20237;-83
2021/12/11 05:27:24;;;;;;;53.17;29.97;;;9.10;93.50;;;;;;10241386;29;20282;-83
2021/12/11 05:32:27;;;;;;;46.17;26.50;;;9.10;93.70;;;;;;10225879;29;20282;-83
2021/12/11 05:37:30;;;;;;;50.03;28.80;;;9.10;93.30;;;;;;10221942;29;20696;-83
2021/12/11 05:42:33;;;;;;;45.43;27.07;;;9.50;92.70;;;;;;10203896;29;20721;-82
2021/12/11 05:47:36;;;;;;;45.37;26.03;;;9.50;92.00;;;;;;10196213;29;20302;-82
2021/12/11 05:52:39;;;;;;;46.03;25.90;;;9.30;92.00;;;;;;10242025;28;20306;-83
2021/12/11 05:57:49;;;;;;;46.60;26.50;;;9.40;92.00;;;;;;10224488;29;20274;-83
2021/12/11 06:02:52;;;;;;;46.07;25.87;;;9.50;92.20;;;;;;10240871;29;20290;-82
2021/12/11 06:07:55;;;;;;;55.37;28.17;;;9.50;91.70;;;;;;10203671;29;20268;-83
2021/12/11 06:12:59;;;;;;;44.57;25.17;;;9.40;92.00;;;;;;10185575;29;20247;-83
2021/12/11 06:18:04;;;;;;;51.57;27.90;;;9.30;92.00;;;;;;10179605;29;20312;-83
2021/12/11 06:23:07;;;;;;;51.07;26.07;;;9.40;91.20;;;;;;10241787;29;20253;-83
2021/12/11 06:28:10;;;;;;;45.60;24.83;;;9.50;91.80;;;;;;10223007;29;20270;-83
2021/12/11 06:33:13;;;;;;;44.33;24.70;;;9.80;91.20;;;;;;10206880;29;20655;-83
2021/12/11 06:38:21;;;;;;;41.20;23.53;;;9.90;90.40;;;;;;10217052;29;20256;-83
2021/12/11 06:43:24;;;;;;;58.77;29.47;;;10.00;90.50;;;;;;10202733;29;20240;-83
2021/12/11 06:48:26;;;;;;;49.13;25.27;;;9.90;86.40;;;;;;10185410;29;20276;-83
2021/12/11 06:53:42;;;;;;;50.93;26.60;;;9.50;90.40;;;;;;10212350;29;20263;-83
2021/12/11 06:58:46;;;;;;;46.93;25.53;;;9.50;89.40;;;;;;10230919;29;20322;-82
2021/12/11 07:03:49;;;;;;;54.73;30.17;;;9.20;91.00;;;;;;10190363;29;20317;-83
2021/12/11 07:08:53;;;;;;;50.93;26.70;;;9.10;90.40;;;;;;10191464;29;20296;-82
2021/12/11 07:13:55;;;;;;;47.17;25.43;;;9.20;91.00;;;;;;10246250;29;20275;-82
2021/12/11 07:18:58;;;;;;;47.93;26.63;;;9.30;90.90;;;;;;10229553;29;20259;-82
2021/12/11 07:24:02;;;;;;;45.40;24.93;;;9.20;90.00;;;;;;10231417;29;20301;-82
2021/12/11 07:29:10;;;;;;;48.57;26.37;;;9.30;90.60;;;;;;10229672;29;20321;-83
2021/12/11 07:34:15;;;;;;;55.63;29.67;;;9.40;90.30;;;;;;10226560;29;20258;-83
2021/12/11 07:39:20;;;;;;;57.20;31.03;;;9.40;89.60;;;;;;10214926;29;20240;-82
2021/12/11 07:44:24;;;;;;;52.30;28.43;;;9.40;88.60;;;;;;10210989;28;20244;-83
2021/12/11 07:49:28;;;;;;;83.27;42.37;;;9.00;89.60;;;;;;10256401;28;20324;-83
2021/12/11 07:54:30;;;;;;;48.33;26.60;;;8.20;86.90;;;;;;10256075;28;20638;-82
2021/12/11 07:59:33;;;;;;;51.77;28.77;;;8.40;91.90;;;;;;10238021;28;20243;-83
2021/12/11 08:04:36;;;;;;;46.20;26.43;;;8.50;91.80;;;;;;10228614;29;20287;-82
2021/12/11 08:09:38;;;;;;;56.10;28.37;;;8.90;90.50;;;;;;10243428;28;20670;-82
2021/12/11 08:14:42;;;;;;;63.10;34.00;;;9.00;90.70;;;;;;10246803;28;20267;-83
2021/12/11 08:19:45;;;;;;;50.07;27.53;;;8.90;90.70;;;;;;10254606;28;20239;-83
2021/12/11 08:24:47;;;;;;;50.03;27.37;;;9.70;89.60;;;;;;10285533;28;20241;-82
2021/12/11 08:29:53;;;;;;;66.33;34.80;;;9.70;87.80;;;;;;10247369;28;20814;-83
2021/12/11 08:34:55;;;;;;;60.07;31.53;;;9.80;85.60;;;;;;10232044;28;20302;-83
2021/12/11 08:39:58;;;;;;;51.63;30.10;;;9.40;86.80;;;;;;10219868;28;20303;-83
2021/12/11 08:45:06;;;;;;;59.63;30.70;;;9.20;89.40;;;;;;10251375;28;20246;-83
2021/12/11 08:50:14;;;;;;;49.13;27.97;;;9.40;88.60;;;;;;10239622;28;20310;-83
2021/12/11 08:55:25;;;;;;;51.43;28.20;;;9.90;88.00;;;;;;10222049;29;20256;-83
2021/12/11 09:00:31;;;;;;;51.77;28.83;;;10.20;86.20;;;;;;10188322;29;20251;-83
2021/12/11 09:05:45;;;;;;;52.37;28.77;;;10.40;85.40;;;;;;10230898;29;20335;-82
2021/12/11 09:10:55;;;;;;;49.10;28.33;;;10.90;83.20;;;;;;10228531;29;20268;-82
2021/12/11 09:16:10;;;;;;;114.83;54.80;;;10.90;81.40;;;;;;10239912;29;20299;-82
2021/12/11 09:21:23;;;;;;;61.90;33.90;;;5.50;94.60;;;;;;10228482;29;20295;-82
2021/12/11 09:26:35;;;;;;;81.20;40.87;;;7.80;94.90;;;;;;10236813;28;20269;-83
2021/12/11 09:32:17;;;;;;;84.93;43.43;;;8.50;91.50;;;;;;10205246;28;20328;-83
2021/12/11 09:37:20;;;;;;;111.43;57.40;;;9.80;73.50;;;;;;10236334;29;20325;-83
2021/12/11 09:42:22;;;;;;;112.03;59.03;;;10.20;65.50;;;;;;10220237;29;20332;-83
2021/12/11 09:47:30;;;;;;;116.70;60.77;;;9.90;61.90;;;;;;10226649;28;20258;-83
2021/12/11 09:52:33;;;;;;;118.80;60.47;;;9.50;63.30;;;;;;10230254;28;20822;-83
2021/12/11 09:57:40;;;;;;;131.97;70.67;;;9.30;64.70;;;;;;10240355;28;20275;-83
2021/12/11 10:02:43;;;;;;;113.63;61.00;;;9.60;63.10;;;;;;10235788;28;20352;-83
2021/12/11 10:08:02;;;;;;;105.33;57.57;;;9.70;65.40;;;;;;10236891;28;20714;-83
2021/12/11 10:13:05;;;;;;;130.13;66.23;;;10.00;65.60;;;;;;10216161;28;20244;-83
2021/12/11 10:18:12;;;;;;;127.97;65.80;;;9.80;66.00;;;;;;10239457;29;20251;-84
2021/12/11 10:23:19;;;;;;;109.90;59.97;;;9.40;67.40;;;;;;10241608;29;20245;-84
2021/12/11 10:28:24;;;;;;;114.87;60.60;;;9.10;70.80;;;;;;10221466;29;20338;-84
2021/12/11 10:33:31;;;;;;;118.80;64.33;;;8.60;71.40;;;;;;10240344;29;20273;-83
2021/12/11 10:38:34;;;;;;;108.10;58.67;;;9.10;71.40;;;;;;10228967;29;20313;-84
2021/12/11 10:44:06;;;;;;;117.43;64.10;;;9.30;71.80;;;;;;10216615;29;20270;-84
2021/12/11 10:49:11;;;;;;;108.33;58.87;;;9.20;71.00;;;;;;10229957;29;20775;-83
2021/12/11 10:54:16;;;;;;;131.57;73.53;;;8.50;73.00;;;;;;10248344;29;20255;-84
2021/12/11 10:59:29;;;;;;;169.37;89.67;;;9.00;72.70;;;;;;10232143;28;20281;-84
2021/12/11 11:04:45;;;;;;;135.73;72.57;;;7.40;69.20;;;;;;10235052;29;20285;-84
2021/12/11 11:09:49;;;;;;;148.10;77.37;;;6.70;81.70;;;;;;10234383;29;20262;-84
2021/12/11 11:14:53;;;;;;;98.80;55.17;;;8.10;80.10;;;;;;10216531;28;20295;-84
2021/12/11 11:19:58;;;;;;;97.27;52.60;;;8.90;78.20;;;;;;10239132;28;20301;-84
2021/12/11 11:25:10;;;;;;;145.97;78.70;;;8.80;77.40;;;;;;10231328;29;20293;-84
2021/12/11 11:30:20;;;;;;;151.70;80.33;;;8.30;76.00;;;;;;10230313;29;20394;-83
2021/12/11 11:35:26;;;;;;;186.90;98.70;;;7.50;78.30;;;;;;10237380;28;20254;-88
2021/12/11 11:40:33;;;;;;;137.53;68.77;;;0.90;85.80;;;;;;10241097;29;20254;-87
2021/12/11 11:45:38;;;;;;;121.83;63.83;;;5.90;97.10;;;;;;10240483;29;20293;-85
2021/12/11 11:50:44;;;;;;;119.80;62.97;;;8.30;90.70;;;;;;10215398;29;20358;-85
2021/12/11 11:55:49;;;;;;;121.17;65.53;;;9.60;86.50;;;;;;10211420;29;20267;-84
2021/12/11 12:00:57;;;;;;;182.43;103.13;;;10.40;84.20;;;;;;10245232;29;20337;-83
2021/12/11 12:06:03;;;;;;;115.67;63.17;;;6.00;61.30;;;;;;10229246;29;20349;-84
2021/12/11 12:11:06;;;;;;;105.37;60.00;;;9.10;94.30;;;;;;10245623;28;20270;-84
2021/12/11 12:16:12;;;;;;;107.43;62.50;;;10.70;90.20;;;;;;10256691;29;20311;-84
2021/12/11 12:21:17;;;;;;;101.27;58.53;;;11.10;88.70;;;;;;10246706;29;20788;-84
2021/12/11 12:26:23;;;;;;;106.60;62.13;;;11.20;89.50;;;;;;10245725;29;20268;-84
2021/12/11 12:31:32;;;;;;;116.03;63.17;;;11.30;89.40;;;;;;10230144;29;20733;-83
2021/12/11 12:36:37;;;;;;;102.83;56.27;;;11.30;90.20;;;;;;10210748;29;20337;-84
2021/12/11 12:41:57;;;;;;;106.43;57.53;;;11.40;90.80;;;;;;10242174;29;20242;-85
2021/12/11 12:47:18;;;;;;;108.33;60.37;;;11.60;91.30;;;;;;9559543;29;10000693;-85
2021/12/11 12:52:35;;;;;;;98.23;55.77;;;11.40;91.50;;;;;;10234497;29;20331;-84
2021/12/11 12:57:42;;;;;;;102.07;55.57;;;11.30;92.70;;;;;;10249216;28;20337;-85
2021/12/11 13:02:47;;;;;;;94.30;53.80;;;11.30;93.00;;;;;;10203588;29;20304;-85
2021/12/11 13:08:02;;;;;;;111.07;58.77;;;11.50;93.70;;;;;;10241945;28;20296;-85
2021/12/11 13:13:06;;;;;;;90.73;52.87;;;11.40;93.30;;;;;;10224965;29;20242;-84
2021/12/11 13:18:15;;;;;;;102.00;57.20;;;11.50;94.50;;;;;;10203891;29;20246;-84
2021/12/11 13:23:19;;;;;;;94.53;54.03;;;11.70;94.20;;;;;;10204667;29;20271;-84
2021/12/11 13:28:25;;;;;;;92.13;56.33;;;11.50;94.50;;;;;;10204808;29;20289;-84
2021/12/11 13:33:28;;;;;;;100.33;58.27;;;11.60;94.80;;;;;;10188069;29;20708;-84
2021/12/11 13:38:32;;;;;;;88.67;53.47;;;11.70;95.00;;;;;;10212613;29;20245;-84
2021/12/11 13:43:36;;;;;;;92.40;52.90;;;11.60;95.40;;;;;;10234814;29;20262;-84
2021/12/11 13:48:39;;;;;;;90.27;52.60;;;11.80;95.60;;;;;;10225843;29;20348;-84
2021/12/11 13:53:43;;;;;;;90.33;53.33;;;12.00;94.90;;;;;;10242976;29;20273;-84
2021/12/11 13:58:47;;;;;;;92.57;53.03;;;11.70;93.80;;;;;;10240868;29;20335;-84
2021/12/11 14:03:51;;;;;;;88.27;51.33;;;11.50;95.50;;;;;;10236090;28;20261;-86
2021/12/11 14:09:06;;;;;;;98.77;54.47;;;11.40;96.10;;;;;;10216753;29;20309;-87
2021/12/11 14:14:11;;;;;;;96.43;54.97;;;11.40;96.60;;;;;;9882995;28;9999925;-86
2021/12/11 14:19:15;;;;;;;116.50;67.23;;;11.30;97.40;;;;;;10243481;29;20285;-86
2021/12/11 14:24:17;;;;;;;93.63;51.63;;;10.70;93.30;;;;;;10229591;29;20305;-86
2021/12/11 14:29:20;;;;;;;107.70;58.73;;;10.90;99.60;;;;;;10239503;29;20312;-87
2021/12/11 14:34:23;;;;;;;147.70;78.37;;;10.80;97.70;;;;;;10211731;29;20713;-86
2021/12/11 14:39:27;;;;;;;102.03;56.77;;;10.30;99.90;;;;;;10226943;29;20345;-86
2021/12/11 14:44:31;;;;;;;93.43;52.80;;;10.60;99.90;;;;;;10216427;29;20300;-87
2021/12/11 14:49:34;;;;;;;123.67;68.57;;;10.90;99.90;;;;;;10227726;28;20308;-87
2021/12/11 14:54:38;;;;;;;113.93;61.67;;;11.20;98.20;;;;;;10233218;29;20924;-87
2021/12/11 14:59:44;;;;;;;102.27;56.97;;;11.10;99.10;;;;;;10234111;28;20636;-86
2021/12/11 15:04:50;;;;;;;131.93;72.10;;;11.30;99.90;;;;;;10231933;29;20245;-84
2021/12/11 15:09:53;;;;;;;224.17;116.97;;;10.70;97.40;;;;;;10226100;28;20327;-86
2021/12/11 15:14:56;;;;;;;163.60;86.37;;;9.20;95.20;;;;;;10218480;29;20239;-86
2021/12/11 15:20:06;;;;;;;180.10;97.67;;;9.50;99.90;;;;;;10196643;28;20298;-86
2021/12/11 15:25:10;;;;;;;227.93;122.23;;;8.60;99.90;;;;;;10223341;29;20244;-86
2021/12/11 15:30:20;;;;;;;105.27;57.20;;;8.50;99.90;;;;;;10219636;29;20264;-85
2021/12/11 15:35:37;;;;;;;118.57;63.13;;;8.80;99.90;;;;;;10249056;28;20317;-85
2021/12/11 15:40:43;;;;;;;98.17;57.07;;;9.90;99.90;;;;;;10237173;29;20273;-85
2021/12/11 15:45:53;;;;;;;114.33;61.27;;;10.70;99.90;;;;;;10241692;29;20261;-85
2021/12/11 15:50:57;;;;;;;99.50;57.60;;;10.90;99.90;;;;;;9880451;29;10000640;-85
2021/12/11 15:56:03;;;;;;;101.53;58.60;;;11.00;99.90;;;;;;10244260;29;20331;-86
2021/12/11 16:01:10;;;;;;;96.83;54.07;;;11.50;99.90;;;;;;10225308;29;20293;-85
2021/12/11 16:06:19;;;;;;;95.97;55.20;;;11.80;99.90;;;;;;10226208;29;20296;-85
2021/12/11 16:11:24;;;;;;;90.03;53.47;;;12.00;99.20;;;;;;10241131;29;20261;-85
2021/12/11 16:16:27;;;;;;;103.90;56.37;;;12.30;98.00;;;;;;10227385;29;20238;-86
2021/12/11 16:21:33;;;;;;;102.00;59.57;;;12.40;97.00;;;;;;10224424;29;20761;-86
2021/12/11 16:26:39;;;;;;;118.17;68.80;;;11.90;96.90;;;;;;10193304;29;20241;-85
2021/12/11 16:31:43;;;;;;;114.27;65.17;;;11.40;98.60;;;;;;10185641;29;20356;-85
2021/12/11 16:36:50;;;;;;;113.23;63.43;;;10.90;98.50;;;;;;10237092;28;20313;-85
2021/12/11 16:41:56;;;;;;;127.27;70.13;;;10.70;99.90;;;;;;10195218;29;20255;-85
2021/12/11 16:47:08;;;;;;;152.53;78.27;;;10.20;99.90;;;;;;10241486;29;20252;-85
2021/12/11 16:52:13;;;;;;;108.40;60.87;;;10.10;99.90;;;;;;10210963;28;20673;-85
2021/12/11 17:54:31;;;;;;;157.43;85.07;;;10.60;99.90;;;;;;10227087;22;8840131;-88
2021/12/11 17:59:34;;;;;;;112.87;63.13;;;7.10;99.90;;;;;;10454064;28;20263;-88
2021/12/11 18:37:28;;;;;;;111.87;59.90;;;13.30;90.90;;;;;;10132474;29;20314;-85
2021/12/11 18:42:32;;;;;;;110.83;61.00;;;13.60;89.50;;;;;;10146796;29;20238;-85
2021/12/11 18:47:36;;;;;;;107.63;59.93;;;13.40;88.90;;;;;;10122127;23;20238;-83
2021/12/11 18:52:41;;;;;;;112.80;63.10;;;13.20;89.50;;;;;;10170070;29;20253;-81
2021/12/11 18:57:47;;;;;;;106.87;59.87;;;12.00;93.30;;;;;;10172788;29;20262;-81
2021/12/11 19:02:52;;;;;;;108.97;59.97;;;13.00;90.30;;;;;;10167755;29;20250;-81
2021/12/11 19:07:55;;;;;;;109.50;60.20;;;13.20;89.50;;;;;;10170461;29;20269;-81
2021/12/11 19:12:57;;;;;;;107.63;61.07;;;13.30;88.10;;;;;;10177086;29;20250;-81
2021/12/11 19:18:01;;;;;;;107.23;57.90;;;13.40;86.90;;;;;;10162116;29;20296;-81
2021/12/11 19:23:04;;;;;;;105.40;57.00;;;13.50;85.90;;;;;;10177078;23;20865;-80
2021/12/11 19:28:12;;;;;;;110.37;61.03;;;13.40;85.50;;;;;;10169474;29;20675;-80
2021/12/11 19:33:19;;;;;;;107.03;58.93;;;13.30;85.40;;;;;;10182027;29;20219;-80
2021/12/11 19:38:23;;;;;;;101.60;56.93;;;13.20;86.00;;;;;;10167442;29;20230;-81
2021/12/11 19:43:27;;;;;;;98.20;57.00;;;13.20;85.10;;;;;;10155776;29;20570;-81
2021/12/11 19:48:29;;;;;;;103.90;56.03;;;13.40;84.30;;;;;;10170754;29;20262;-81
2021/12/11 19:53:33;;;;;;;103.03;55.77;;;13.40;83.70;;;;;;10171582;29;20254;-81
2021/12/11 19:58:37;;;;;;;100.13;55.90;;;12.60;85.10;;;;;;10169969;29;20716;-81
2021/12/11 20:03:41;;;;;;;100.20;54.30;;;12.70;85.20;;;;;;10151968;29;20247;-81
2021/12/11 20:08:51;;;;;;;97.70;54.00;;;12.30;85.80;;;;;;10174655;29;20253;-81
2021/12/11 20:13:54;;;;;;;93.27;51.33;;;12.90;84.90;;;;;;10176267;29;20206;-81
2021/12/11 20:19:07;;;;;;;95.17;51.00;;;13.10;83.70;;;;;;10175915;29;20641;-81
2021/12/11 20:24:11;;;;;;;85.40;51.80;;;12.80;83.90;;;;;;10156037;29;20657;-81
2021/12/11 20:29:30;;;;;;;89.50;48.97;;;12.50;85.00;;;;;;10172067;29;20641;-81
2021/12/11 20:34:33;;;;;;;92.00;50.07;;;12.50;85.10;;;;;;10171557;29;20210;-81
2021/12/11 20:39:36;;;;;;;94.77;50.77;;;12.50;85.30;;;;;;10155728;29;20233;-83
2021/12/11 20:44:42;;;;;;;92.03;49.63;;;12.20;80.40;;;;;;10155030;29;20214;-82
2021/12/11 20:49:47;;;;;;;88.77;47.20;;;12.20;86.50;;;;;;10170995;29;20214;-82
2021/12/11 20:54:54;;;;;;;84.40;46.27;;;12.30;85.30;;;;;;10152858;29;20242;-83
2021/12/11 20:59:56;;;;;;;85.17;46.80;;;12.00;86.20;;;;;;10152613;29;20741;-83
2021/12/11 21:05:11;;;;;;;84.33;47.07;;;12.10;87.10;;;;;;10168812;29;20243;-83
2021/12/11 21:10:21;;;;;;;83.00;45.43;;;12.40;85.70;;;;;;10169352;29;20208;-82
2021/12/11 21:15:29;;;;;;;79.37;45.10;;;12.30;84.80;;;;;;10151698;29;20500;-82
2021/12/11 21:20:37;;;;;;;80.20;45.97;;;12.60;84.40;;;;;;10168294;29;20315;-84
2021/12/11 21:26:00;;;;;;;80.63;44.27;;;12.60;84.10;;;;;;10166978;29;20264;-83
2021/12/11 21:31:08;;;;;;;78.33;42.90;;;12.70;83.40;;;;;;10166250;29;20230;-82
2021/12/11 21:36:15;;;;;;;80.67;43.13;;;12.80;82.80;;;;;;10167953;29;20237;-83
2021/12/11 21:41:50;;;;;;;78.20;43.23;;;12.70;82.80;;;;;;10166846;29;20262;-83
2021/12/11 21:46:59;;;;;;;76.07;41.97;;;12.80;82.10;;;;;;10173021;29;20290;-83
2021/12/11 21:52:13;;;;;;;69.13;41.30;;;12.90;81.80;;;;;;10170650;29;20325;-83
2021/12/11 21:57:20;;;;;;;66.50;37.40;;;13.00;81.00;;;;;;10174033;29;20254;-83
2021/12/11 22:02:28;;;;;;;64.80;38.07;;;12.40;76.10;;;;;;10174039;29;20293;-83
2021/12/11 22:07:35;;;;;;;70.50;41.03;;;12.70;81.30;;;;;;10174112;29;20681;-83
2021/12/11 22:12:40;;;;;;;70.30;38.13;;;12.60;81.40;;;;;;10173476;29;20743;-83
2021/12/11 22:17:43;;;;;;;70.43;39.10;;;12.50;82.00;;;;;;10153546;29;20771;-83
2021/12/11 22:22:47;;;;;;;66.10;37.20;;;12.70;81.40;;;;;;10172622;29;20259;-83
2021/12/11 22:27:52;;;;;;;66.27;36.70;;;12.70;80.90;;;;;;10156310;29;20227;-83
2021/12/11 22:32:55;;;;;;;64.43;35.93;;;12.80;80.50;;;;;;10172879;29;20292;-83
2021/12/11 22:37:59;;;;;;;62.87;36.23;;;12.90;79.90;;;;;;10172896;29;20297;-83
2021/12/11 22:43:05;;;;;;;58.73;34.33;;;12.80;80.00;;;;;;10140354;29;20284;-84
2021/12/11 22:48:09;;;;;;;59.93;35.93;;;12.80;79.80;;;;;;10154896;29;20243;-83
2021/12/11 22:53:18;;;;;;;61.17;34.70;;;12.90;79.50;;;;;;10170111;29;20238;-83
2021/12/11 22:58:46;;;;;;;55.67;32.53;;;12.60;79.60;;;;;;10152707;29;20254;-83
2021/12/11 23:03:53;;;;;;;55.50;31.63;;;12.90;79.10;;;;;;10150278;29;20297;-83
2021/12/11 23:09:01;;;;;;;58.87;34.43;;;12.90;78.70;;;;;;10170510;29;20229;-83
2021/12/11 23:14:14;;;;;;;56.43;31.90;;;12.90;78.50;;;;;;10169560;29;20245;-82
2021/12/11 23:19:22;;;;;;;63.10;32.40;;;12.90;78.90;;;;;;10154764;29;20731;-83
2021/12/11 23:24:42;;;;;;;54.90;31.63;;;12.40;75.30;;;;;;10154420;29;20274;-83
2021/12/11 23:29:50;;;;;;;55.40;31.80;;;12.60;78.80;;;;;;10154302;29;20265;-83
2021/12/11 23:34:57;;;;;;;56.93;33.37;;;12.60;78.80;;;;;;10154556;29;20251;-83
2021/12/11 23:40:20;;;;;;;58.40;30.63;;;12.70;78.30;;;;;;10153569;29;20263;-83
2021/12/11 23:45:38;;;;;;;54.33;31.40;;;13.00;77.30;;;;;;9829168;29;10000119;-83
2021/12/11 23:50:48;;;;;;;47.77;28.73;;;13.00;76.90;;;;;;10150489;29;20246;-83
2021/12/11 23:56:17;;;;;;;53.10;28.97;;;13.00;76.70;;;;;;10166715;29;20231;-83
